createdAt,value
2019-04-30T00:04:05.644Z,20.00
2019-04-30T00:06:38.975Z,19.90
2019-04-30T00:09:05.430Z,19.80
2019-04-30T00:11:33.839Z,19.90
2019-04-30T00:14:05.484Z,19.90
2019-04-30T00:16:36.345Z,19.90
2019-04-30T00:19:03.480Z,19.90
2019-04-30T00:21:32.817Z,19.70
2019-04-30T00:24:08.691Z,19.50
2019-04-30T00:26:35.283Z,19.40
2019-04-30T00:29:05.003Z,19.40
2019-04-30T00:31:32.771Z,19.50
2019-04-30T00:34:02.897Z,19.50
2019-04-30T00:36:34.102Z,19.50
2019-04-30T00:39:02.313Z,19.40
2019-04-30T00:41:31.802Z,19.30
2019-04-30T00:44:01.721Z,19.30
2019-04-30T00:46:31.403Z,19.20
2019-04-30T00:49:09.129Z,19.20
2019-04-30T00:51:31.668Z,19.20
2019-04-30T00:54:01.389Z,19.20
2019-04-30T00:56:30.776Z,19.10
2019-04-30T00:59:02.700Z,19.00
2019-04-30T01:04:32.343Z,19.00
2019-04-30T01:07:07.168Z,19.00
2019-04-30T01:09:32.704Z,18.80
2019-04-30T01:12:01.987Z,18.90
2019-04-30T01:14:32.202Z,18.80
2019-04-30T01:17:03.826Z,18.80
2019-04-30T01:19:32.863Z,18.80
2019-04-30T01:22:01.839Z,18.80
2019-04-30T01:24:31.869Z,18.70
2019-04-30T01:27:06.804Z,18.70
2019-04-30T01:29:38.062Z,18.60
2019-04-30T01:32:00.931Z,18.40
2019-04-30T01:34:30.330Z,18.30
2019-04-30T01:36:59.519Z,18.20
2019-04-30T01:39:31.587Z,18.10
2019-04-30T01:42:02.833Z,18.00
2019-04-30T01:44:29.815Z,17.80
2019-04-30T01:46:59.528Z,17.70
2019-04-30T01:49:32.582Z,17.80
2019-04-30T01:52:00.908Z,17.80
2019-04-30T01:54:29.140Z,17.70
2019-04-30T02:00:01.889Z,17.70
2019-04-30T02:02:31.817Z,17.70
2019-04-30T02:05:01.242Z,17.70
2019-04-30T02:07:30.766Z,17.50
2019-04-30T02:10:00.301Z,17.50
2019-04-30T02:12:29.955Z,17.50
2019-04-30T02:15:00.194Z,17.60
2019-04-30T02:17:29.840Z,17.60
2019-04-30T02:19:59.473Z,17.60
2019-04-30T02:22:31.214Z,17.50
2019-04-30T02:24:59.359Z,17.50
2019-04-30T02:27:29.421Z,17.40
2019-04-30T02:29:59.423Z,17.30
2019-04-30T02:32:30.503Z,17.20
2019-04-30T02:38:03.503Z,17.10
2019-04-30T02:40:33.906Z,16.80
2019-04-30T02:43:04.543Z,16.70
2019-04-30T02:45:34.443Z,16.70
2019-04-30T02:48:04.187Z,16.70
2019-04-30T02:50:35.248Z,16.50
2019-04-30T02:53:05.349Z,16.50
2019-04-30T02:55:50.207Z,16.40
2019-04-30T02:58:21.128Z,16.30
2019-04-30T03:00:50.659Z,16.30
2019-04-30T03:03:20.391Z,16.10
2019-04-30T03:05:49.843Z,16.00
2019-04-30T03:08:19.934Z,15.90
2019-04-30T03:10:49.919Z,15.70
2019-04-30T03:13:20.085Z,15.70
2019-04-30T03:15:49.370Z,15.50
2019-04-30T03:18:20.072Z,15.40
2019-04-30T03:20:50.412Z,15.20
2019-04-30T03:23:20.089Z,15.10
2019-04-30T03:25:50.182Z,15.00
2019-04-30T03:28:20.193Z,15.00
2019-04-30T03:30:56.182Z,14.90
2019-04-30T03:33:22.714Z,14.90
2019-04-30T03:35:54.254Z,14.80
2019-04-30T03:38:20.414Z,14.70
2019-04-30T03:40:50.242Z,14.60
2019-04-30T03:43:20.136Z,14.50
2019-04-30T03:45:49.945Z,14.40
2019-04-30T03:48:20.095Z,14.40
2019-04-30T03:50:55.752Z,14.30
2019-04-30T03:53:20.221Z,14.20
2019-04-30T03:55:50.628Z,14.20
2019-04-30T03:58:21.180Z,14.00
2019-04-30T04:01:04.577Z,14.00
2019-04-30T04:03:34.156Z,13.90
2019-04-30T04:09:16.912Z,13.80
2019-04-30T04:11:46.724Z,13.70
2019-04-30T04:14:16.296Z,13.60
2019-04-30T04:16:45.799Z,13.60
2019-04-30T04:19:15.357Z,13.60
2019-04-30T04:21:44.896Z,13.60
2019-04-30T04:24:14.113Z,13.50
2019-04-30T04:26:43.854Z,13.40
2019-04-30T04:29:13.393Z,13.40
2019-04-30T04:31:42.925Z,13.40
2019-04-30T04:34:12.470Z,13.40
2019-04-30T04:36:43.353Z,13.70
2019-04-30T04:39:11.551Z,13.70
2019-04-30T04:41:44.026Z,13.50
2019-04-30T04:44:13.051Z,13.30
2019-04-30T04:46:40.814Z,13.20
2019-04-30T04:49:10.319Z,13.10
2019-04-30T04:51:42.360Z,13.10
2019-04-30T04:54:10.338Z,13.00
2019-04-30T04:56:40.105Z,12.90
2019-04-30T04:59:10.227Z,12.80
2019-04-30T05:01:39.478Z,12.80
2019-04-30T05:04:11.461Z,12.80
2019-04-30T05:06:39.484Z,12.70
2019-04-30T05:09:09.745Z,12.70
2019-04-30T05:11:39.541Z,12.70
2019-04-30T05:14:08.358Z,12.60
2019-04-30T05:16:38.900Z,12.50
2019-04-30T05:19:08.892Z,12.50
2019-04-30T05:21:44.089Z,12.50
2019-04-30T05:24:09.085Z,12.50
2019-04-30T05:26:38.665Z,12.40
2019-04-30T05:29:09.451Z,12.30
2019-04-30T05:31:38.673Z,12.20
2019-04-30T05:34:10.084Z,12.20
2019-04-30T05:36:39.153Z,12.10
2019-04-30T05:39:08.705Z,12.10
2019-04-30T05:41:38.657Z,12.00
2019-04-30T05:44:09.128Z,11.90
2019-04-30T05:46:39.648Z,11.90
2019-04-30T05:49:09.019Z,11.80
2019-04-30T05:51:38.806Z,11.80
2019-04-30T05:54:09.103Z,11.90
2019-04-30T05:56:39.492Z,11.80
2019-04-30T05:59:08.990Z,11.80
2019-04-30T06:01:39.452Z,11.80
2019-04-30T06:04:09.400Z,11.80
2019-04-30T06:06:38.885Z,11.80
2019-04-30T06:12:16.137Z,11.60
2019-04-30T06:14:51.792Z,11.50
2019-04-30T06:17:20.330Z,11.50
2019-04-30T06:19:51.500Z,11.50
2019-04-30T06:22:19.864Z,11.50
2019-04-30T06:24:49.499Z,11.50
2019-04-30T06:27:19.260Z,11.50
2019-04-30T06:29:48.990Z,11.40
2019-04-30T06:32:18.650Z,11.40
2019-04-30T06:34:49.824Z,11.40
2019-04-30T06:37:19.468Z,11.40
2019-04-30T06:39:49.875Z,11.40
2019-04-30T06:42:19.445Z,11.40
2019-04-30T06:44:49.405Z,11.40
2019-04-30T06:47:20.122Z,11.40
2019-04-30T06:49:48.885Z,11.40
2019-04-30T06:52:22.740Z,11.30
2019-04-30T06:54:49.847Z,11.30
2019-04-30T06:57:19.867Z,11.30
2019-04-30T06:59:51.216Z,11.20
2019-04-30T07:02:19.696Z,11.20
2019-04-30T07:04:49.104Z,11.20
2019-04-30T07:07:19.247Z,11.20
2019-04-30T07:09:58.067Z,11.20
2019-04-30T07:12:38.836Z,11.10
2019-04-30T07:15:08.719Z,11.10
2019-04-30T07:17:40.513Z,11.00
2019-04-30T07:20:07.804Z,11.00
2019-04-30T07:22:40.925Z,11.00
2019-04-30T07:25:09.391Z,11.00
2019-04-30T07:27:39.925Z,11.00
2019-04-30T07:30:07.267Z,11.00
2019-04-30T07:32:38.660Z,11.00
2019-04-30T07:35:09.296Z,10.90
2019-04-30T07:37:38.911Z,10.90
2019-04-30T07:40:08.838Z,10.90
2019-04-30T07:42:43.946Z,10.90
2019-04-30T07:45:07.127Z,10.80
2019-04-30T07:47:36.616Z,10.70
2019-04-30T07:50:08.111Z,10.70
2019-04-30T07:52:55.406Z,10.60
2019-04-30T07:55:09.626Z,10.50
2019-04-30T07:57:40.433Z,10.50
2019-04-30T08:00:09.650Z,10.40
2019-04-30T08:02:43.427Z,10.40
2019-04-30T08:05:10.518Z,10.40
2019-04-30T08:07:39.213Z,10.30
2019-04-30T08:10:08.799Z,10.30
2019-04-30T08:12:42.170Z,10.20
2019-04-30T08:15:09.645Z,10.10
2019-04-30T08:17:38.910Z,10.10
2019-04-30T08:20:08.744Z,10.00
2019-04-30T08:22:40.845Z,10.00
2019-04-30T08:25:09.615Z,10.00
2019-04-30T08:27:39.122Z,10.10
2019-04-30T08:30:20.702Z,10.40
2019-04-30T08:32:38.702Z,10.60
2019-04-30T08:35:09.391Z,10.80
2019-04-30T08:37:38.539Z,11.00
2019-04-30T08:40:08.692Z,11.10
2019-04-30T08:42:40.148Z,11.10
2019-04-30T08:45:09.457Z,10.90
2019-04-30T08:47:39.239Z,10.50
2019-04-30T08:50:09.353Z,10.40
2019-04-30T08:52:39.339Z,10.30
2019-04-30T08:55:16.273Z,10.20
2019-04-30T08:57:39.411Z,10.20
2019-04-30T09:00:09.201Z,10.30
2019-04-30T09:02:38.931Z,10.30
2019-04-30T09:08:04.607Z,10.30
2019-04-30T09:10:33.920Z,10.20
2019-04-30T09:13:03.484Z,10.30
2019-04-30T09:15:33.024Z,10.30
2019-04-30T09:18:05.963Z,10.30
2019-04-30T09:20:33.223Z,10.30
2019-04-30T09:23:03.093Z,10.30
2019-04-30T09:25:32.438Z,10.30
2019-04-30T09:28:04.402Z,10.20
2019-04-30T09:30:32.598Z,10.10
2019-04-30T09:33:01.954Z,10.10
2019-04-30T09:35:32.193Z,10.00
2019-04-30T09:38:02.091Z,10.00
2019-04-30T09:40:32.565Z,9.90
2019-04-30T09:43:01.713Z,9.90
2019-04-30T09:45:31.065Z,9.80
2019-04-30T09:48:00.678Z,9.70
2019-04-30T09:50:30.212Z,9.70
2019-04-30T09:53:00.192Z,9.60
2019-04-30T09:55:29.458Z,9.60
2019-04-30T09:57:58.942Z,9.50
2019-04-30T10:00:29.547Z,9.40
2019-04-30T10:02:59.861Z,9.30
2019-04-30T10:05:29.374Z,9.20
2019-04-30T10:07:59.415Z,9.20
2019-04-30T10:10:29.075Z,9.20
2019-04-30T10:12:59.253Z,9.20
2019-04-30T10:15:32.566Z,9.20
2019-04-30T10:18:02.224Z,9.20
2019-04-30T10:20:40.235Z,9.20
2019-04-30T10:23:09.649Z,9.20
2019-04-30T10:25:39.028Z,9.20
2019-04-30T10:28:09.957Z,9.20
2019-04-30T10:30:38.265Z,9.20
2019-04-30T10:33:09.725Z,9.20
2019-04-30T10:35:38.533Z,9.20
2019-04-30T10:38:09.698Z,9.20
2019-04-30T10:40:38.986Z,9.30
2019-04-30T10:43:08.843Z,9.40
2019-04-30T10:45:38.775Z,9.30
2019-04-30T10:48:07.187Z,9.30
2019-04-30T10:50:36.890Z,9.30
2019-04-30T10:53:06.432Z,9.30
2019-04-30T10:55:35.853Z,9.30
2019-04-30T10:58:05.224Z,9.20
2019-04-30T11:00:38.953Z,9.20
2019-04-30T11:03:17.242Z,9.10
2019-04-30T11:05:40.679Z,9.10
2019-04-30T11:08:07.496Z,9.10
2019-04-30T11:10:37.129Z,9.10
2019-04-30T11:13:06.595Z,9.00
2019-04-30T11:15:36.038Z,9.10
2019-04-30T11:18:05.578Z,9.10
2019-04-30T11:20:35.195Z,9.10
2019-04-30T11:23:14.202Z,9.00
2019-04-30T11:25:35.135Z,9.00
2019-04-30T11:28:04.728Z,9.00
2019-04-30T11:30:34.241Z,9.00
2019-04-30T11:33:03.972Z,9.00
2019-04-30T11:35:33.359Z,9.00
2019-04-30T11:38:02.815Z,9.00
2019-04-30T11:40:37.045Z,9.00
2019-04-30T11:43:02.665Z,8.90
2019-04-30T11:45:43.232Z,8.90
2019-04-30T11:48:13.269Z,8.90
2019-04-30T11:50:42.544Z,8.90
2019-04-30T11:53:24.510Z,8.90
2019-04-30T11:55:41.790Z,8.90
2019-04-30T11:58:21.457Z,8.90
2019-04-30T12:00:43.777Z,8.80
2019-04-30T12:03:13.352Z,8.70
2019-04-30T12:05:42.685Z,8.60
2019-04-30T12:08:13.674Z,8.60
2019-04-30T12:10:49.421Z,8.60
2019-04-30T12:13:25.229Z,8.50
2019-04-30T12:15:54.888Z,8.50
2019-04-30T12:18:24.167Z,8.50
2019-04-30T12:20:53.439Z,8.50
2019-04-30T12:23:22.935Z,8.50
2019-04-30T12:25:52.411Z,8.50
2019-04-30T12:28:22.545Z,8.60
2019-04-30T12:30:53.256Z,8.70
2019-04-30T12:33:22.669Z,8.70
2019-04-30T12:35:53.062Z,8.80
2019-04-30T12:38:22.600Z,8.70
2019-04-30T12:40:52.206Z,8.70
2019-04-30T12:43:21.672Z,8.80
2019-04-30T12:46:02.265Z,8.70
2019-04-30T12:48:21.375Z,8.80
2019-04-30T12:53:53.004Z,8.80
2019-04-30T12:56:27.043Z,8.70
2019-04-30T12:58:52.367Z,8.60
2019-04-30T13:01:22.006Z,8.70
2019-04-30T13:03:58.689Z,8.60
2019-04-30T13:06:22.001Z,8.60
2019-04-30T13:08:52.539Z,8.60
2019-04-30T13:11:21.731Z,8.60
2019-04-30T13:13:51.547Z,8.60
2019-04-30T13:16:20.211Z,8.50
2019-04-30T13:18:50.337Z,8.50
2019-04-30T13:21:20.294Z,8.60
2019-04-30T13:23:49.754Z,8.60
2019-04-30T13:26:19.262Z,8.50
2019-04-30T13:29:00.105Z,8.50
2019-04-30T13:31:29.680Z,8.50
2019-04-30T13:34:04.563Z,8.50
2019-04-30T13:36:35.112Z,8.70
2019-04-30T13:39:05.602Z,8.70
2019-04-30T13:41:38.083Z,8.80
2019-04-30T13:44:09.502Z,8.90
2019-04-30T13:46:39.456Z,8.90
2019-04-30T13:49:07.314Z,9.00
2019-04-30T13:51:37.001Z,9.00
2019-04-30T13:54:06.540Z,9.10
2019-04-30T13:56:36.121Z,9.00
2019-04-30T13:59:05.579Z,9.10
2019-04-30T14:01:35.191Z,9.30
2019-04-30T14:04:10.136Z,9.40
2019-04-30T14:06:45.459Z,9.50
2019-04-30T14:09:15.185Z,9.60
2019-04-30T14:11:44.652Z,9.70
2019-04-30T14:14:14.750Z,10.00
2019-04-30T14:16:44.443Z,10.00
2019-04-30T14:19:13.911Z,10.30
2019-04-30T14:21:43.191Z,10.40
2019-04-30T14:24:12.671Z,10.60
2019-04-30T14:26:42.081Z,10.50
2019-04-30T14:29:11.292Z,10.60
2019-04-30T14:31:41.958Z,11.00
2019-04-30T14:34:11.613Z,11.00
2019-04-30T14:36:41.005Z,11.10
2019-04-30T14:39:14.618Z,11.30
2019-04-30T14:41:42.594Z,11.70
2019-04-30T14:44:14.685Z,11.70
2019-04-30T14:50:02.703Z,12.90
2019-04-30T14:52:29.230Z,12.90
2019-04-30T14:55:12.369Z,13.10
2019-04-30T14:57:46.051Z,13.20
2019-04-30T15:00:35.648Z,13.30
2019-04-30T15:03:15.519Z,13.40
2019-04-30T15:05:50.962Z,13.60
2019-04-30T15:08:15.378Z,13.80
2019-04-30T15:10:45.005Z,13.70
2019-04-30T15:13:14.574Z,13.80
2019-04-30T15:15:44.143Z,13.80
2019-04-30T15:18:13.266Z,13.90
2019-04-30T15:20:42.747Z,14.00
2019-04-30T15:23:23.924Z,14.20
2019-04-30T15:25:53.164Z,14.30
2019-04-30T15:28:22.616Z,14.40
2019-04-30T15:30:52.043Z,14.60
2019-04-30T15:36:20.780Z,14.80
2019-04-30T15:38:55.187Z,14.70
2019-04-30T15:41:24.550Z,14.90
2019-04-30T15:43:54.234Z,15.00
2019-04-30T15:46:23.964Z,15.00
2019-04-30T15:48:53.367Z,15.10
2019-04-30T15:51:22.941Z,15.40
2019-04-30T15:53:52.264Z,15.40
2019-04-30T15:56:21.666Z,15.40
2019-04-30T15:58:56.706Z,15.40
2019-04-30T16:01:26.026Z,15.60
2019-04-30T16:03:55.885Z,16.00
2019-04-30T16:06:25.852Z,16.10
2019-04-30T16:08:55.276Z,16.00
2019-04-30T16:11:40.863Z,16.30
2019-04-30T16:14:25.398Z,16.60
2019-04-30T16:16:59.562Z,16.80
2019-04-30T16:19:28.938Z,17.00
2019-04-30T16:21:58.523Z,16.80
2019-04-30T16:24:28.702Z,16.70
2019-04-30T16:26:59.334Z,19.10
2019-04-30T16:29:27.684Z,19.60
2019-04-30T16:31:59.032Z,21.60
2019-04-30T16:34:30.183Z,23.70
2019-04-30T16:36:58.928Z,25.50
2019-04-30T16:39:28.638Z,27.90
2019-04-30T16:41:56.445Z,31.30
2019-04-30T16:44:26.608Z,32.00
2019-04-30T16:46:56.222Z,31.90
2019-04-30T16:49:25.873Z,30.60
2019-04-30T16:51:55.932Z,28.10
2019-04-30T16:54:25.436Z,28.00
2019-04-30T16:57:03.576Z,27.30
2019-04-30T17:02:20.898Z,30.60
2019-04-30T17:04:51.694Z,30.60
2019-04-30T17:07:22.250Z,31.30
2019-04-30T17:09:54.818Z,32.00
2019-04-30T17:12:24.422Z,31.70
2019-04-30T17:14:59.747Z,34.60
2019-04-30T17:17:30.375Z,39.90
2019-04-30T17:19:59.573Z,39.80
2019-04-30T17:22:31.315Z,43.20
2019-04-30T17:24:59.746Z,43.10
2019-04-30T17:27:29.387Z,43.20
2019-04-30T17:29:59.435Z,45.80
2019-04-30T17:32:29.014Z,45.70
2019-04-30T17:34:58.842Z,46.90
2019-04-30T17:37:28.033Z,46.80
2019-04-30T17:39:58.988Z,47.20
2019-04-30T17:42:27.049Z,47.50
2019-04-30T17:44:58.906Z,47.00
2019-04-30T17:47:26.393Z,45.60
2019-04-30T17:49:55.741Z,45.90
2019-04-30T17:52:25.542Z,45.30
2019-04-30T17:54:54.802Z,44.50
2019-04-30T17:57:32.366Z,44.30
2019-04-30T17:59:54.248Z,45.40
2019-04-30T18:02:23.779Z,46.40
2019-04-30T18:04:54.626Z,47.10
2019-04-30T18:07:24.060Z,46.90
2019-04-30T18:09:54.419Z,48.10
2019-04-30T18:12:23.398Z,48.00
2019-04-30T18:14:53.319Z,48.80
2019-04-30T18:17:22.737Z,47.30
2019-04-30T18:20:05.382Z,47.70
2019-04-30T18:22:40.101Z,47.40
2019-04-30T18:25:18.539Z,46.00
2019-04-30T18:28:09.015Z,46.60
2019-04-30T18:30:38.987Z,47.70
2019-04-30T18:33:09.596Z,48.00
2019-04-30T18:35:38.829Z,46.40
2019-04-30T18:38:07.324Z,44.10
2019-04-30T18:40:36.826Z,42.30
2019-04-30T18:43:06.358Z,42.30
2019-04-30T18:45:35.885Z,44.40
2019-04-30T18:48:05.183Z,44.90
2019-04-30T18:50:34.451Z,46.10
2019-04-30T18:53:04.985Z,46.40
2019-04-30T18:55:34.813Z,46.50
2019-04-30T18:58:04.109Z,46.40
2019-04-30T19:00:39.409Z,45.40
2019-04-30T19:03:08.662Z,45.40
2019-04-30T19:05:39.166Z,44.80
2019-04-30T19:08:07.372Z,41.50
2019-04-30T19:13:54.409Z,32.90
2019-04-30T19:16:29.436Z,32.70
2019-04-30T19:19:16.969Z,29.60
2019-04-30T19:21:46.335Z,28.50
2019-04-30T19:24:16.187Z,27.70
2019-04-30T19:26:45.730Z,27.20
2019-04-30T19:29:15.333Z,27.00
2019-04-30T19:31:44.888Z,26.00
2019-04-30T19:34:14.242Z,25.20
2019-04-30T19:36:43.684Z,25.50
2019-04-30T19:39:13.294Z,25.40
2019-04-30T19:41:42.599Z,25.50
2019-04-30T19:44:12.224Z,24.90
2019-04-30T19:46:41.639Z,24.20
2019-04-30T19:49:10.925Z,23.80
2019-04-30T19:51:40.259Z,24.20
2019-04-30T19:54:11.322Z,24.60
2019-04-30T19:56:39.900Z,24.40
2019-04-30T19:59:09.365Z,24.20
2019-04-30T20:01:39.079Z,23.90
2019-04-30T20:04:09.823Z,24.10
2019-04-30T20:06:38.684Z,23.90
2019-04-30T20:09:08.921Z,23.70
2019-04-30T20:11:39.825Z,23.50
2019-04-30T20:14:10.330Z,23.40
2019-04-30T20:16:40.089Z,23.30
2019-04-30T20:19:09.213Z,22.90
2019-04-30T20:21:48.051Z,22.80
2019-04-30T20:24:07.699Z,22.60
2019-04-30T20:26:37.353Z,22.40
2019-04-30T20:29:08.887Z,22.50
2019-04-30T20:31:38.277Z,22.40
2019-04-30T20:34:06.362Z,22.40
2019-04-30T20:36:35.901Z,22.20
2019-04-30T20:39:21.723Z,22.20
2019-04-30T20:41:51.398Z,22.00
2019-04-30T20:44:20.896Z,22.00
2019-04-30T20:46:50.377Z,22.00
2019-04-30T20:49:19.685Z,22.00
2019-04-30T20:51:55.029Z,22.00
2019-04-30T20:54:19.337Z,21.90
2019-04-30T20:56:50.998Z,21.90
2019-04-30T20:59:19.066Z,21.70
2019-04-30T21:01:49.171Z,22.10
2019-04-30T21:04:20.594Z,22.10
2019-04-30T21:06:49.622Z,21.80
2019-04-30T21:09:18.634Z,21.70
2019-04-30T21:11:48.977Z,21.80
2019-04-30T21:14:19.294Z,21.80
2019-04-30T21:16:47.539Z,21.80
2019-04-30T21:19:17.124Z,21.90
2019-04-30T21:21:46.392Z,21.70
2019-04-30T21:24:16.535Z,21.10
2019-04-30T21:26:45.778Z,21.00
2019-04-30T21:29:16.003Z,20.60
2019-04-30T21:31:46.016Z,20.80
2019-04-30T21:34:29.220Z,21.00
2019-04-30T21:36:56.970Z,21.00
2019-04-30T21:39:26.450Z,20.70
2019-04-30T21:41:55.894Z,20.90
2019-04-30T21:44:25.517Z,21.10
2019-04-30T21:46:54.703Z,21.30
2019-04-30T21:49:24.028Z,21.40
2019-04-30T21:51:53.184Z,21.40
2019-04-30T21:54:22.774Z,21.00
2019-04-30T21:56:52.079Z,20.90
2019-04-30T21:59:24.404Z,21.00
2019-04-30T22:01:51.296Z,21.00
2019-04-30T22:04:20.624Z,21.10
2019-04-30T22:06:51.218Z,21.20
2019-04-30T22:09:22.036Z,21.50
2019-04-30T22:11:51.561Z,21.50
2019-04-30T22:14:21.680Z,21.30
2019-04-30T22:16:50.637Z,21.30
2019-04-30T22:19:19.971Z,21.60
2019-04-30T22:21:49.645Z,21.80
2019-04-30T22:24:19.322Z,21.70
2019-04-30T22:26:48.814Z,21.50
2019-04-30T22:29:19.154Z,21.70
2019-04-30T22:31:49.434Z,21.70
2019-04-30T22:34:18.913Z,21.70
2019-04-30T22:36:48.891Z,21.60
2019-04-30T22:39:19.994Z,21.60
2019-04-30T22:44:46.276Z,20.90
2019-04-30T22:47:15.669Z,20.90
2019-04-30T22:49:46.120Z,21.10
2019-04-30T22:52:15.697Z,21.10
2019-04-30T22:54:45.937Z,21.20
2019-04-30T22:57:15.235Z,21.30
2019-04-30T22:59:50.014Z,21.10
2019-04-30T23:02:20.528Z,20.90
2019-04-30T23:04:51.478Z,21.00
2019-04-30T23:07:21.327Z,21.00
2019-04-30T23:09:50.966Z,21.00
2019-04-30T23:12:20.182Z,20.90
2019-04-30T23:14:49.788Z,20.90
2019-04-30T23:17:19.311Z,20.90
2019-04-30T23:19:49.537Z,20.90
2019-04-30T23:22:18.630Z,21.00
2019-04-30T23:24:47.900Z,21.00
2019-04-30T23:27:17.431Z,21.20
2019-04-30T23:29:46.823Z,21.30
2019-04-30T23:32:16.195Z,21.30
2019-04-30T23:34:45.761Z,21.00
2019-04-30T23:37:15.094Z,20.90
2019-04-30T23:39:44.746Z,20.70
2019-04-30T23:42:14.227Z,20.50
2019-04-30T23:44:43.958Z,20.50
2019-04-30T23:47:13.630Z,20.50
2019-04-30T23:49:43.084Z,20.40
2019-04-30T23:52:12.306Z,20.30
2019-04-30T23:54:42.459Z,20.10
2019-04-30T23:57:12.033Z,20.20
2019-04-30T23:59:41.578Z,20.20
